Airfield :
LOGIN :

Register | Disclaimer

   EN    FR    IT 

 










Legend :    VFR   Marginal VFR   IFR   Intensive IFR   Very Intensive IFR
Visi :
Ceiling :
>= 8 km
>= 3000ft
5 to 8 km
1000 to 3000 ft
1500m to 5 km
500 to 1000 ft
800 to 1500m
200 to 500 ft
< 800m
< 200 ft
Symbols :   Thunderstorms  Fog  Heavy snow  Heavy precipitations  Wind > 20 kt
SIGMETs :     Misc.  Thunderstorms  Icing  Turbulence  Mountain Waves  Volcanic Ashes







- Airport Elevation : 580 ft
- Download approach charts


LFOA - Avord

CURRENT METAR :
  • 210100Z AUTO 18008KT CAVOK 14/12 Q1015

EXPIRED METARs :
  • 210030Z AUTO 17008KT CAVOK 14/12 Q1015
  • 210000Z AUTO 18006KT CAVOK 13/12 Q1016
  • 202330Z AUTO 18006KT CAVOK 13/12 Q1016
  • 202300Z AUTO 17005KT CAVOK 13/12 Q1016
  • 202230Z AUTO 17004KT 9999 FEW045 13/12 Q1016

TAF TAF LFOA
Valid from the 20 at 15:00 until the 21 at 15:00 UTC


201400Z 2015/2115 20010KT 9999 BKN035
BECMG 2015/2017 14007KT
BECMG 2107/2109 24010G20KT 4000 RA BKN015 BKN025
BECMG 2112/2114 22015G25KT 9999 NSW BKN030TCU
No reported NOTAMs for that airfield.
1 SIGMET reported for the Paris FIR (LFFF) :
 
Severe turbulence
LFFF SIGMET 5 VALID 202300/210300 LFPW
LFFF PARIS FIR/UIR SEV TURB FCST WI N4845 W00015 - N5000 W00015 - N5100 E00145 - N4945 E00145 SFC/FL060 MOV E 25KT NC=



MET'MAP, your aeronautical weather chart ! - Copyright ORBIFLY December 2007 - Disclaimer

ORBIFLY MET'MAP TEAM :

Programming & Development : Alexandra Zaïnal
Concept & Development : Baudouin d'Aumeries
Co-Development & Prog : Marc-Olivier Méhu
Technical & hardware support : Manuel Goepfert

Contact : metmap@orbifly.com




SOURCES & CREDITS :

   NOAA